sensor_id;sensor_type;location;lat;lon;timestamp;pressure;altitude;pressure_sealevel;temperature;humidity
30935;BME280;51033;42.648;23.292;2023-06-10T00:02:10;93526.16;;;18.22;67.16
30935;BME280;51033;42.648;23.292;2023-06-10T00:04:36;93524.72;;;18.32;67.43
30935;BME280;51033;42.648;23.292;2023-06-10T00:07:05;93525.44;;;18.29;66.61
30935;BME280;51033;42.648;23.292;2023-06-10T00:09:38;93533.19;;;18.34;66.57
30935;BME280;51033;42.648;23.292;2023-06-10T00:12:05;93527.78;;;18.30;66.57
30935;BME280;51033;42.648;23.292;2023-06-10T00:14:33;93526.97;;;18.26;66.32
30935;BME280;51033;42.648;23.292;2023-06-10T00:16:58;93507.59;;;18.14;66.17
30935;BME280;51033;42.648;23.292;2023-06-10T00:19:24;93533.44;;;18.22;66.16
30935;BME280;51033;42.648;23.292;2023-06-10T00:21:51;93512.06;;;17.99;66.89
30935;BME280;51033;42.648;23.292;2023-06-10T00:24:18;93527.63;;;18.16;66.56
30935;BME280;51033;42.648;23.292;2023-06-10T00:26:44;93528.38;;;18.17;66.84
30935;BME280;51033;42.648;23.292;2023-06-10T00:29:09;93529.94;;;18.18;66.53
30935;BME280;51033;42.648;23.292;2023-06-10T00:31:36;93528.47;;;18.24;66.53
30935;BME280;51033;42.648;23.292;2023-06-10T00:34:02;93519.19;;;18.18;66.28
30935;BME280;51033;42.648;23.292;2023-06-10T00:36:28;93512.22;;;18.13;66.64
30935;BME280;51033;42.648;23.292;2023-06-10T00:38:53;93521.53;;;18.23;66.62
30935;BME280;51033;42.648;23.292;2023-06-10T00:41:19;93519.66;;;18.27;66.64
30935;BME280;51033;42.648;23.292;2023-06-10T00:43:44;93518.84;;;18.23;66.62
30935;BME280;51033;42.648;23.292;2023-06-10T00:46:11;93515.38;;;18.22;66.58
30935;BME280;51033;42.648;23.292;2023-06-10T00:48:39;93525.41;;;18.25;66.88
30935;BME280;51033;42.648;23.292;2023-06-10T00:51:05;93507.59;;;18.14;67.15
30935;BME280;51033;42.648;23.292;2023-06-10T00:53:31;93483.63;;;18.01;66.91
30935;BME280;51033;42.648;23.292;2023-06-10T00:55:57;93518.09;;;18.26;66.98
30935;BME280;51033;42.648;23.292;2023-06-10T00:58:23;93520.84;;;18.29;66.55
30935;BME280;51033;42.648;23.292;2023-06-10T01:00:49;93511.50;;;18.20;66.59
30935;BME280;51033;42.648;23.292;2023-06-10T01:03:15;93530.09;;;18.32;66.25
30935;BME280;51033;42.648;23.292;2023-06-10T01:05:42;93523.03;;;18.20;66.51
30935;BME280;51033;42.648;23.292;2023-06-10T01:08:33;93518.31;;;18.10;66.96
30935;BME280;51033;42.648;23.292;2023-06-10T01:11:01;93514.44;;;18.08;66.96
30935;BME280;51033;42.648;23.292;2023-06-10T01:13:29;93525.28;;;18.15;66.53
30935;BME280;51033;42.648;23.292;2023-06-10T01:15:57;93535.41;;;18.25;66.72
30935;BME280;51033;42.648;23.292;2023-06-10T01:18:23;93542.03;;;18.01;67.96
30935;BME280;51033;42.648;23.292;2023-06-10T01:20:48;93528.13;;;17.95;67.91
30935;BME280;51033;42.648;23.292;2023-06-10T01:23:15;93526.69;;;18.01;67.52
30935;BME280;51033;42.648;23.292;2023-06-10T01:25:56;93541.81;;;18.13;67.64
30935;BME280;51033;42.648;23.292;2023-06-10T01:28:38;93534.09;;;18.12;68.16
30935;BME280;51033;42.648;23.292;2023-06-10T01:34:10;93529.03;;;18.07;67.95
30935;BME280;51033;42.648;23.292;2023-06-10T01:36:36;93532.22;;;18.16;67.99
30935;BME280;51033;42.648;23.292;2023-06-10T01:39:03;93529.16;;;18.17;67.97
30935;BME280;51033;42.648;23.292;2023-06-10T01:41:30;93529.63;;;18.23;67.82
30935;BME280;51033;42.648;23.292;2023-06-10T01:43:56;93520.38;;;18.24;68.13
30935;BME280;51033;42.648;23.292;2023-06-10T01:46:22;93523.16;;;18.31;67.76
30935;BME280;51033;42.648;23.292;2023-06-10T01:48:47;93527.41;;;18.32;67.59
30935;BME280;51033;42.648;23.292;2023-06-10T01:51:13;93528.19;;;18.32;67.29
30935;BME280;51033;42.648;23.292;2023-06-10T01:53:39;93520.06;;;18.29;67.25
30935;BME280;51033;42.648;23.292;2023-06-10T01:56:04;93531.72;;;18.40;67.05
30935;BME280;51033;42.648;23.292;2023-06-10T01:58:30;93516.31;;;18.37;67.25
30935;BME280;51033;42.648;23.292;2023-06-10T02:00:55;93510.94;;;18.37;67.35
30935;BME280;51033;42.648;23.292;2023-06-10T02:03:21;93514.00;;;18.39;66.83
30935;BME280;51033;42.648;23.292;2023-06-10T02:05:46;93502.44;;;18.35;66.45
30935;BME280;51033;42.648;23.292;2023-06-10T02:08:11;93478.41;;;18.19;66.04
30935;BME280;51033;42.648;23.292;2023-06-10T02:10:37;93497.19;;;18.49;65.09
30935;BME280;51033;42.648;23.292;2023-06-10T02:13:02;93373.31;;;17.68;64.79
30935;BME280;51033;42.648;23.292;2023-06-10T02:15:28;93502.25;;;18.54;64.82
30935;BME280;51033;42.648;23.292;2023-06-10T02:17:53;93490.97;;;18.41;65.05
30935;BME280;51033;42.648;23.292;2023-06-10T02:20:19;93496.03;;;18.46;65.12
30935;BME280;51033;42.648;23.292;2023-06-10T02:22:46;93491.81;;;18.49;65.23
30935;BME280;51033;42.648;23.292;2023-06-10T02:25:11;93495.28;;;18.50;65.23
30935;BME280;51033;42.648;23.292;2023-06-10T02:27:36;93484.03;;;18.40;65.12
30935;BME280;51033;42.648;23.292;2023-06-10T02:30:02;93475.50;;;18.35;64.52
30935;BME280;51033;42.648;23.292;2023-06-10T02:32:27;93480.97;;;18.42;64.66
30935;BME280;51033;42.648;23.292;2023-06-10T02:34:53;93482.47;;;18.39;64.58
30935;BME280;51033;42.648;23.292;2023-06-10T02:37:19;93470.00;;;18.24;64.66
30935;BME280;51033;42.648;23.292;2023-06-10T02:39:45;93473.91;;;18.27;64.86
30935;BME280;51033;42.648;23.292;2023-06-10T02:42:11;93475.47;;;18.28;64.84
30935;BME280;51033;42.648;23.292;2023-06-10T02:44:36;93469.19;;;18.17;64.80
30935;BME280;51033;42.648;23.292;2023-06-10T02:47:04;93479.28;;;18.27;65.06
30935;BME280;51033;42.648;23.292;2023-06-10T02:49:30;93484.66;;;18.27;64.90
30935;BME280;51033;42.648;23.292;2023-06-10T02:51:55;93467.28;;;18.21;65.08
30935;BME280;51033;42.648;23.292;2023-06-10T02:54:22;93486.50;;;18.19;65.85
30935;BME280;51033;42.648;23.292;2023-06-10T02:56:48;93483.44;;;18.21;66.20
30935;BME280;51033;42.648;23.292;2023-06-10T02:59:14;93474.94;;;18.15;66.51
30935;BME280;51033;42.648;23.292;2023-06-10T03:01:40;93459.97;;;18.18;66.40
30935;BME280;51033;42.648;23.292;2023-06-10T03:04:06;93481.56;;;18.25;67.03
30935;BME280;51033;42.648;23.292;2023-06-10T03:06:32;93485.38;;;18.24;67.69
30935;BME280;51033;42.648;23.292;2023-06-10T03:09:01;93481.66;;;18.32;67.08
30935;BME280;51033;42.648;23.292;2023-06-10T03:11:26;93488.13;;;18.27;65.92
30935;BME280;51033;42.648;23.292;2023-06-10T03:13:52;93487.75;;;18.29;65.98
30935;BME280;51033;42.648;23.292;2023-06-10T03:16:19;93477.66;;;18.19;66.10
30935;BME280;51033;42.648;23.292;2023-06-10T03:18:44;93479.19;;;18.20;65.81
30935;BME280;51033;42.648;23.292;2023-06-10T03:21:10;93479.97;;;18.20;66.10
30935;BME280;51033;42.648;23.292;2023-06-10T03:23:35;93483.44;;;18.21;66.50
30935;BME280;51033;42.648;23.292;2023-06-10T03:26:01;93472.22;;;18.15;66.55
30935;BME280;51033;42.648;23.292;2023-06-10T03:28:26;93493.88;;;18.26;66.43
30935;BME280;51033;42.648;23.292;2023-06-10T03:30:52;93491.84;;;18.16;66.82
30935;BME280;51033;42.648;23.292;2023-06-10T03:33:17;93507.53;;;18.10;67.66
30935;BME280;51033;42.648;23.292;2023-06-10T03:35:43;93506.44;;;18.15;67.87
30935;BME280;51033;42.648;23.292;2023-06-10T03:38:08;93520.81;;;18.26;67.02
30935;BME280;51033;42.648;23.292;2023-06-10T03:40:34;93519.22;;;18.21;67.14
30935;BME280;51033;42.648;23.292;2023-06-10T03:43:00;93513.09;;;18.24;66.88
30935;BME280;51033;42.648;23.292;2023-06-10T03:45:25;93506.66;;;18.32;66.61
30935;BME280;51033;42.648;23.292;2023-06-10T03:47:53;93515.44;;;18.29;67.04
30935;BME280;51033;42.648;23.292;2023-06-10T03:50:18;93506.13;;;18.20;67.70
30935;BME280;51033;42.648;23.292;2023-06-10T03:52:44;93514.59;;;18.22;67.57
30935;BME280;51033;42.648;23.292;2023-06-10T03:55:10;93490.69;;;18.13;67.90
30935;BME280;51033;42.648;23.292;2023-06-10T03:57:36;93482.53;;;18.10;67.63
30935;BME280;51033;42.648;23.292;2023-06-10T04:00:02;93496.09;;;18.17;67.86
30935;BME280;51033;42.648;23.292;2023-06-10T04:02:33;93469.38;;;18.01;68.06
30935;BME280;51033;42.648;23.292;2023-06-10T04:04:59;93495.31;;;18.16;68.04
30935;BME280;51033;42.648;23.292;2023-06-10T04:07:25;93490.75;;;18.20;68.50
30935;BME280;51033;42.648;23.292;2023-06-10T04:09:50;93498.47;;;18.22;68.40
30935;BME280;51033;42.648;23.292;2023-06-10T04:12:16;93497.00;;;18.28;68.46
30935;BME280;51033;42.648;23.292;2023-06-10T04:14:41;93508.97;;;18.34;68.09
30935;BME280;51033;42.648;23.292;2023-06-10T04:17:08;93510.13;;;18.33;68.05
30935;BME280;51033;42.648;23.292;2023-06-10T04:19:33;93510.84;;;18.30;68.16
30935;BME280;51033;42.648;23.292;2023-06-10T04:22:01;93478.28;;;18.05;68.87
30935;BME280;51033;42.648;23.292;2023-06-10T04:24:27;93520.06;;;18.29;69.21
30935;BME280;51033;42.648;23.292;2023-06-10T04:26:53;93513.16;;;18.31;68.82
30935;BME280;51033;42.648;23.292;2023-06-10T04:29:18;93508.16;;;18.30;68.68
30935;BME280;51033;42.648;23.292;2023-06-10T04:31:43;93519.41;;;18.39;68.80
30935;BME280;51033;42.648;23.292;2023-06-10T04:34:11;93509.72;;;18.34;69.04
30935;BME280;51033;42.648;23.292;2023-06-10T04:36:36;93510.16;;;18.36;69.24
30935;BME280;51033;42.648;23.292;2023-06-10T04:39:02;93514.84;;;18.43;69.21
30935;BME280;51033;42.648;23.292;2023-06-10T04:41:27;93520.28;;;18.50;69.48
30935;BME280;51033;42.648;23.292;2023-06-10T04:43:53;93521.06;;;18.51;69.18
30935;BME280;51033;42.648;23.292;2023-06-10T04:46:19;93507.25;;;18.52;69.23
30935;BME280;51033;42.648;23.292;2023-06-10T04:48:44;93519.63;;;18.60;69.20
30935;BME280;51033;42.648;23.292;2023-06-10T04:51:09;93511.50;;;18.57;69.35
30935;BME280;51033;42.648;23.292;2023-06-10T04:53:35;93514.16;;;18.53;69.09
30935;BME280;51033;42.648;23.292;2023-06-10T04:56:00;93515.97;;;18.42;69.36
30935;BME280;51033;42.648;23.292;2023-06-10T04:58:26;93519.44;;;18.42;69.45
30935;BME280;51033;42.648;23.292;2023-06-10T05:00:51;93511.88;;;18.55;68.50
30935;BME280;51033;42.648;23.292;2023-06-10T05:03:16;93506.13;;;18.57;68.98
30935;BME280;51033;42.648;23.292;2023-06-10T05:05:42;93515.78;;;18.61;69.13
30935;BME280;51033;42.648;23.292;2023-06-10T05:08:07;93511.13;;;18.58;68.54
30935;BME280;51033;42.648;23.292;2023-06-10T05:10:33;93510.31;;;18.54;68.32
30935;BME280;51033;42.648;23.292;2023-06-10T05:12:59;93511.19;;;18.65;67.48
30935;BME280;51033;42.648;23.292;2023-06-10T05:15:24;93508.16;;;18.67;67.54
30935;BME280;51033;42.648;23.292;2023-06-10T05:17:50;93514.31;;;18.67;67.66
30935;BME280;51033;42.648;23.292;2023-06-10T05:20:16;93504.25;;;18.64;68.22
30935;BME280;51033;42.648;23.292;2023-06-10T05:22:41;93508.19;;;18.70;68.52
30935;BME280;51033;42.648;23.292;2023-06-10T05:25:07;93495.47;;;18.67;68.09
30935;BME280;51033;42.648;23.292;2023-06-10T05:27:32;93498.22;;;18.71;67.94
30935;BME280;51033;42.648;23.292;2023-06-10T05:29:58;93515.25;;;18.82;68.16
30935;BME280;51033;42.648;23.292;2023-06-10T05:32:23;93510.56;;;18.75;68.03
30935;BME280;51033;42.648;23.292;2023-06-10T05:34:48;93515.59;;;18.80;68.37
30935;BME280;51033;42.648;23.292;2023-06-10T05:37:14;93513.91;;;18.69;68.50
30935;BME280;51033;42.648;23.292;2023-06-10T05:39:39;93505.06;;;18.68;68.54
30935;BME280;51033;42.648;23.292;2023-06-10T05:42:06;93517.50;;;18.76;68.23
30935;BME280;51033;42.648;23.292;2023-06-10T05:44:32;93513.72;;;18.84;68.51
30935;BME280;51033;42.648;23.292;2023-06-10T05:46:58;93502.53;;;18.82;68.01
30935;BME280;51033;42.648;23.292;2023-06-10T05:49:23;93508.41;;;18.95;68.10
30935;BME280;51033;42.648;23.292;2023-06-10T05:51:49;93514.69;;;19.10;67.28
30935;BME280;51033;42.648;23.292;2023-06-10T05:54:15;93527.75;;;19.04;67.69
30935;BME280;51033;42.648;23.292;2023-06-10T05:56:40;93517.66;;;18.98;68.08
30935;BME280;51033;42.648;23.292;2023-06-10T05:59:06;93515.75;;;18.98;68.06
30935;BME280;51033;42.648;23.292;2023-06-10T06:01:31;93518.84;;;18.97;67.78
30935;BME280;51033;42.648;23.292;2023-06-10T06:03:56;93534.84;;;18.82;67.81
30935;BME280;51033;42.648;23.292;2023-06-10T06:06:22;93522.22;;;18.90;67.61
30935;BME280;51033;42.648;23.292;2023-06-10T06:08:48;93481.38;;;18.81;66.78
30935;BME280;51033;42.648;23.292;2023-06-10T06:11:13;93533.88;;;19.01;67.43
30935;BME280;51033;42.648;23.292;2023-06-10T06:13:39;93527.59;;;18.86;68.41
30935;BME280;51033;42.648;23.292;2023-06-10T06:16:04;93525.69;;;18.91;68.23
30935;BME280;51033;42.648;23.292;2023-06-10T06:18:30;93526.16;;;19.00;68.04
30935;BME280;51033;42.648;23.292;2023-06-10T06:20:55;93529.38;;;19.16;67.04
30935;BME280;51033;42.648;23.292;2023-06-10T06:23:20;93497.53;;;18.84;67.47
30935;BME280;51033;42.648;23.292;2023-06-10T06:25:46;93486.44;;;18.93;66.67
30935;BME280;51033;42.648;23.292;2023-06-10T06:28:11;93525.84;;;19.12;66.48
30935;BME280;51033;42.648;23.292;2023-06-10T06:30:36;93514.59;;;18.96;67.21
30935;BME280;51033;42.648;23.292;2023-06-10T06:33:02;93524.25;;;19.00;67.90
30935;BME280;51033;42.648;23.292;2023-06-10T06:35:27;93525.47;;;19.06;67.11
30935;BME280;51033;42.648;23.292;2023-06-10T06:37:52;93535.59;;;19.23;66.61
30935;BME280;51033;42.648;23.292;2023-06-10T06:40:18;93530.63;;;19.32;66.30
30935;BME280;51033;42.648;23.292;2023-06-10T06:42:44;93519.50;;;19.38;66.54
30935;BME280;51033;42.648;23.292;2023-06-10T06:45:09;93525.25;;;19.36;65.96
30935;BME280;51033;42.648;23.292;2023-06-10T06:47:35;93526.59;;;19.56;64.12
30935;BME280;51033;42.648;23.292;2023-06-10T06:50:00;93531.19;;;19.52;63.85
30935;BME280;51033;42.648;23.292;2023-06-10T06:52:26;93504.47;;;19.33;65.25
30935;BME280;51033;42.648;23.292;2023-06-10T06:54:51;93508.72;;;19.34;66.36
30935;BME280;51033;42.648;23.292;2023-06-10T06:57:16;93519.53;;;19.41;65.16
30935;BME280;51033;42.648;23.292;2023-06-10T06:59:42;93518.72;;;19.37;64.38
30935;BME280;51033;42.648;23.292;2023-06-10T07:02:07;93512.53;;;19.33;65.42
30935;BME280;51033;42.648;23.292;2023-06-10T07:04:33;93515.38;;;19.47;65.83
30935;BME280;51033;42.648;23.292;2023-06-10T07:06:58;93491.75;;;19.33;65.37
30935;BME280;51033;42.648;23.292;2023-06-10T07:09:24;93511.13;;;19.46;65.34
30935;BME280;51033;42.648;23.292;2023-06-10T07:11:49;93511.19;;;19.60;65.09
30935;BME280;51033;42.648;23.292;2023-06-10T07:14:14;93500.28;;;19.43;65.07
30935;BME280;51033;42.648;23.292;2023-06-10T07:16:40;93512.59;;;19.40;64.43
30935;BME280;51033;42.648;23.292;2023-06-10T07:19:05;93508.28;;;19.32;63.96
30935;BME280;51033;42.648;23.292;2023-06-10T07:21:31;93499.72;;;19.16;64.60
30935;BME280;51033;42.648;23.292;2023-06-10T07:23:57;93508.41;;;19.46;63.97
30935;BME280;51033;42.648;23.292;2023-06-10T07:26:23;93495.00;;;19.60;61.61
30935;BME280;51033;42.648;23.292;2023-06-10T07:28:48;93488.13;;;19.66;62.15
30935;BME280;51033;42.648;23.292;2023-06-10T07:31:14;93489.22;;;19.55;61.02
30935;BME280;51033;42.648;23.292;2023-06-10T07:33:39;93499.25;;;19.58;59.99
30935;BME280;51033;42.648;23.292;2023-06-10T07:36:05;93507.78;;;19.70;60.79
30935;BME280;51033;42.648;23.292;2023-06-10T07:38:31;93498.47;;;19.57;61.19
30935;BME280;51033;42.648;23.292;2023-06-10T07:40:57;93495.13;;;19.20;62.70
30935;BME280;51033;42.648;23.292;2023-06-10T07:43:24;93496.97;;;19.60;62.40
30935;BME280;51033;42.648;23.292;2023-06-10T07:45:50;93473.53;;;19.78;60.70
30935;BME280;51033;42.648;23.292;2023-06-10T07:48:15;93484.38;;;19.89;58.58
30935;BME280;51033;42.648;23.292;2023-06-10T07:50:41;93496.69;;;19.90;58.66
30935;BME280;51033;42.648;23.292;2023-06-10T07:53:07;93471.59;;;19.79;56.89
30935;BME280;51033;42.648;23.292;2023-06-10T07:55:32;93495.22;;;20.03;57.29
30935;BME280;51033;42.648;23.292;2023-06-10T07:57:58;93505.78;;;19.57;56.26
30935;BME280;51033;42.648;23.292;2023-06-10T08:00:23;93500.03;;;19.58;56.54
30935;BME280;51033;42.648;23.292;2023-06-10T08:02:49;93507.41;;;19.68;58.53
30935;BME280;51033;42.648;23.292;2023-06-10T08:05:15;93499.84;;;20.06;59.34
30935;BME280;51033;42.648;23.292;2023-06-10T08:07:41;93493.16;;;19.75;58.72
30935;BME280;51033;42.648;23.292;2023-06-10T08:10:07;93500.50;;;19.74;58.76
30935;BME280;51033;42.648;23.292;2023-06-10T08:12:35;93494.19;;;19.49;55.71
30935;BME280;51033;42.648;23.292;2023-06-10T08:15:02;93508.25;;;19.80;55.70
30935;BME280;51033;42.648;23.292;2023-06-10T08:17:30;93490.50;;;19.79;54.05
30935;BME280;51033;42.648;23.292;2023-06-10T08:19:56;93490.16;;;19.91;54.61
30935;BME280;51033;42.648;23.292;2023-06-10T08:22:21;93487.06;;;19.89;53.93
30935;BME280;51033;42.648;23.292;2023-06-10T08:24:47;93489.72;;;19.82;53.51
30935;BME280;51033;42.648;23.292;2023-06-10T08:27:12;93482.06;;;19.91;53.96
30935;BME280;51033;42.648;23.292;2023-06-10T08:29:39;93487.13;;;20.06;52.90
30935;BME280;51033;42.648;23.292;2023-06-10T08:32:05;93468.22;;;20.03;52.36
30935;BME280;51033;42.648;23.292;2023-06-10T08:34:33;93465.91;;;19.98;53.52
30935;BME280;51033;42.648;23.292;2023-06-10T08:37:00;93469.00;;;20.03;54.24
30935;BME280;51033;42.648;23.292;2023-06-10T08:39:25;93461.38;;;20.30;53.23
30935;BME280;51033;42.648;23.292;2023-06-10T08:44:35;93473.34;;;20.29;52.64
30935;BME280;51033;42.648;23.292;2023-06-10T08:47:07;93462.84;;;20.10;52.05
30935;BME280;51033;42.648;23.292;2023-06-10T08:49:38;93471.38;;;20.19;50.49
30935;BME280;51033;42.648;23.292;2023-06-10T08:52:07;93462.94;;;20.31;51.04
30935;BME280;51033;42.648;23.292;2023-06-10T08:54:33;93458.72;;;20.37;50.85
30935;BME280;51033;42.648;23.292;2023-06-10T08:57:04;93449.03;;;20.26;49.94
30935;BME280;51033;42.648;23.292;2023-06-10T08:59:31;93455.59;;;20.39;50.31
30935;BME280;51033;42.648;23.292;2023-06-10T09:01:56;93456.03;;;20.48;49.39
30935;BME280;51033;42.648;23.292;2023-06-10T09:04:24;93455.66;;;20.60;48.06
30935;BME280;51033;42.648;23.292;2023-06-10T09:06:50;93452.94;;;20.56;48.12
30935;BME280;51033;42.648;23.292;2023-06-10T09:09:16;93448.31;;;20.60;48.08
30935;BME280;51033;42.648;23.292;2023-06-10T09:11:43;93446.03;;;20.63;48.89
30935;BME280;51033;42.648;23.292;2023-06-10T09:14:08;93435.22;;;20.77;48.95
30935;BME280;51033;42.648;23.292;2023-06-10T09:16:34;93454.50;;;20.75;46.98
30935;BME280;51033;42.648;23.292;2023-06-10T09:18:59;93435.97;;;20.63;48.25
30935;BME280;51033;42.648;23.292;2023-06-10T09:21:25;93458.34;;;20.78;47.25
30935;BME280;51033;42.648;23.292;2023-06-10T09:23:51;93439.81;;;20.41;47.19
30935;BME280;51033;42.648;23.292;2023-06-10T09:26:17;93451.03;;;20.75;47.26
30935;BME280;51033;42.648;23.292;2023-06-10T09:29:02;93440.22;;;20.82;46.67
30935;BME280;51033;42.648;23.292;2023-06-10T09:31:28;93435.19;;;20.84;46.88
30935;BME280;51033;42.648;23.292;2023-06-10T09:33:53;93422.09;;;20.86;49.82
30935;BME280;51033;42.648;23.292;2023-06-10T09:36:22;93437.53;;;20.99;48.53
30935;BME280;51033;42.648;23.292;2023-06-10T09:38:49;93429.06;;;21.01;47.79
30935;BME280;51033;42.648;23.292;2023-06-10T09:41:16;93436.00;;;21.16;47.26
30935;BME280;51033;42.648;23.292;2023-06-10T09:43:43;93408.97;;;21.02;47.63
30935;BME280;51033;42.648;23.292;2023-06-10T09:46:19;93411.66;;;20.81;47.48
30935;BME280;51033;42.648;23.292;2023-06-10T09:48:46;93427.50;;;21.00;47.40
30935;BME280;51033;42.648;23.292;2023-06-10T09:51:13;93415.09;;;21.27;47.97
30935;BME280;51033;42.648;23.292;2023-06-10T09:53:39;93390.38;;;21.18;45.35
30935;BME280;51033;42.648;23.292;2023-06-10T09:56:05;93417.81;;;21.20;45.96
30935;BME280;51033;42.648;23.292;2023-06-10T09:58:38;93420.44;;;21.52;45.47
30935;BME280;51033;42.648;23.292;2023-06-10T10:01:14;93403.47;;;21.44;45.81
30935;BME280;51033;42.648;23.292;2023-06-10T10:03:47;93416.22;;;21.55;45.38
30935;BME280;51033;42.648;23.292;2023-06-10T10:06:15;93410.41;;;21.60;46.99
30935;BME280;51033;42.648;23.292;2023-06-10T10:08:40;93395.69;;;21.64;47.99
30935;BME280;51033;42.648;23.292;2023-06-10T10:11:06;93395.59;;;21.89;46.11
30935;BME280;51033;42.648;23.292;2023-06-10T10:13:34;93394.47;;;21.76;43.52
30935;BME280;51033;42.648;23.292;2023-06-10T10:16:04;93387.63;;;21.39;44.76
30935;BME280;51033;42.648;23.292;2023-06-10T10:18:31;93386.41;;;21.69;43.95
30935;BME280;51033;42.648;23.292;2023-06-10T10:21:01;93388.31;;;21.75;45.45
30935;BME280;51033;42.648;23.292;2023-06-10T10:23:34;93380.91;;;21.83;45.43
30935;BME280;51033;42.648;23.292;2023-06-10T10:26:07;93393.59;;;22.04;44.16
30935;BME280;51033;42.648;23.292;2023-06-10T10:28:41;93389.69;;;22.08;44.78
30935;BME280;51033;42.648;23.292;2023-06-10T10:31:11;93371.16;;;21.96;44.27
30935;BME280;51033;42.648;23.292;2023-06-10T10:33:45;93374.53;;;22.21;44.49
30935;BME280;51033;42.648;23.292;2023-06-10T10:36:12;93374.50;;;22.28;43.54
30935;BME280;51033;42.648;23.292;2023-06-10T10:38:38;93388.31;;;22.45;43.41
30935;BME280;51033;42.648;23.292;2023-06-10T10:41:04;93382.84;;;22.52;42.64
30935;BME280;51033;42.648;23.292;2023-06-10T10:43:30;93389.03;;;22.52;42.82
30935;BME280;51033;42.648;23.292;2023-06-10T10:46:00;93385.88;;;22.61;45.31
30935;BME280;51033;42.648;23.292;2023-06-10T10:48:27;93367.31;;;22.56;43.74
30935;BME280;51033;42.648;23.292;2023-06-10T10:50:58;93374.31;;;22.53;43.03
30935;BME280;51033;42.648;23.292;2023-06-10T10:53:24;93378.97;;;22.53;43.56
30935;BME280;51033;42.648;23.292;2023-06-10T10:58:29;93372.78;;;22.49;42.33
30935;BME280;51033;42.648;23.292;2023-06-10T11:00:55;93341.69;;;22.64;41.74
30935;BME280;51033;42.648;23.292;2023-06-10T11:03:20;93373.50;;;22.56;41.92
30935;BME280;51033;42.648;23.292;2023-06-10T11:05:47;93361.09;;;22.59;41.98
30935;BME280;51033;42.648;23.292;2023-06-10T11:08:13;93360.78;;;22.53;42.08
30935;BME280;51033;42.648;23.292;2023-06-10T11:10:41;93355.41;;;22.46;42.15
30935;BME280;51033;42.648;23.292;2023-06-10T11:15:32;93359.59;;;22.54;41.50
30935;BME280;51033;42.648;23.292;2023-06-10T11:28:42;93343.84;;;22.83;42.28
30935;BME280;51033;42.648;23.292;2023-06-10T11:33:57;93329.22;;;23.14;39.10
30935;BME280;51033;42.648;23.292;2023-06-10T11:36:23;93326.69;;;23.00;38.94
30935;BME280;51033;42.648;23.292;2023-06-10T11:38:54;93316.31;;;22.92;39.70
30935;BME280;51033;42.648;23.292;2023-06-10T11:41:20;93299.09;;;22.64;41.77
30935;BME280;51033;42.648;23.292;2023-06-10T11:43:46;93329.34;;;22.63;41.22
30935;BME280;51033;42.648;23.292;2023-06-10T11:46:14;93319.97;;;22.71;41.01
30935;BME280;51033;42.648;23.292;2023-06-10T11:48:47;93299.16;;;22.61;40.14
30935;BME280;51033;42.648;23.292;2023-06-10T11:51:13;93325.94;;;22.96;40.93
30935;BME280;51033;42.648;23.292;2023-06-10T11:53:38;93304.81;;;22.77;40.02
30935;BME280;51033;42.648;23.292;2023-06-10T11:56:04;93310.44;;;22.97;40.29
30935;BME280;51033;42.648;23.292;2023-06-10T11:58:29;93306.25;;;22.85;41.54
30935;BME280;51033;42.648;23.292;2023-06-10T12:00:55;93322.47;;;22.51;42.15
30935;BME280;51033;42.648;23.292;2023-06-10T12:03:26;93281.28;;;22.63;41.43
30935;BME280;51033;42.648;23.292;2023-06-10T12:05:58;93321.97;;;23.04;41.94
30935;BME280;51033;42.648;23.292;2023-06-10T12:08:24;93315.59;;;23.22;40.39
30935;BME280;51033;42.648;23.292;2023-06-10T12:10:50;93311.25;;;23.28;39.78
30935;BME280;51033;42.648;23.292;2023-06-10T12:13:16;93308.53;;;23.28;39.67
30935;BME280;51033;42.648;23.292;2023-06-10T12:15:45;93314.13;;;23.51;40.50
30935;BME280;51033;42.648;23.292;2023-06-10T12:18:21;93303.63;;;23.53;41.63
30935;BME280;51033;42.648;23.292;2023-06-10T12:20:46;93302.91;;;23.49;40.84
30935;BME280;51033;42.648;23.292;2023-06-10T12:23:14;93299.72;;;23.54;41.99
30935;BME280;51033;42.648;23.292;2023-06-10T12:25:49;93309.13;;;23.46;41.25
30935;BME280;51033;42.648;23.292;2023-06-10T12:28:16;93284.88;;;23.32;41.96
30935;BME280;51033;42.648;23.292;2023-06-10T12:30:42;93305.81;;;23.62;41.05
30935;BME280;51033;42.648;23.292;2023-06-10T12:33:21;93298.44;;;23.62;39.74
30935;BME280;51033;42.648;23.292;2023-06-10T12:35:48;93298.25;;;23.46;38.87
30935;BME280;51033;42.648;23.292;2023-06-10T12:38:17;93296.69;;;23.14;40.16
30935;BME280;51033;42.648;23.292;2023-06-10T12:40:47;93287.66;;;23.25;39.93
30935;BME280;51033;42.648;23.292;2023-06-10T12:43:12;93260.91;;;23.27;39.07
30935;BME280;51033;42.648;23.292;2023-06-10T12:45:39;93284.22;;;23.54;38.79
30935;BME280;51033;42.648;23.292;2023-06-10T12:48:18;93279.16;;;23.23;39.33
30935;BME280;51033;42.648;23.292;2023-06-10T12:50:50;93272.09;;;23.29;40.23
30935;BME280;51033;42.648;23.292;2023-06-10T12:53:15;93283.50;;;23.47;40.48
30935;BME280;51033;42.648;23.292;2023-06-10T12:55:43;93289.13;;;23.63;40.29
30935;BME280;51033;42.648;23.292;2023-06-10T12:58:10;93288.63;;;23.72;38.61
30935;BME280;51033;42.648;23.292;2023-06-10T13:00:35;93284.28;;;23.78;37.65
30935;BME280;51033;42.648;23.292;2023-06-10T13:03:02;93278.19;;;23.70;36.31
30935;BME280;51033;42.648;23.292;2023-06-10T13:05:28;93299.00;;;23.80;36.81
30935;BME280;51033;42.648;23.292;2023-06-10T13:07:54;93222.00;;;23.06;36.44
30935;BME280;51033;42.648;23.292;2023-06-10T13:10:20;93293.41;;;23.64;37.71
30935;BME280;51033;42.648;23.292;2023-06-10T13:12:46;93291.78;;;23.70;36.42